Terminal Aerodrome Forecast
Issued by NWS Sioux Falls, SD

Home | Current Version | Previous Version | Text Only | Print | Product List | Glossary On
Versions: 1 2 3 4 5 6 7 8 9 10 11 12 13 14 15 16 17 18
000
FTUS43 KFSD 221100
TAFFSD
TAF
KFSD 221137Z 2212/2312 VRB03KT 6SM BR FEW003
     FM221330 04006KT P6SM SCT250
     FM221800 08007KT P6SM SCT200
     FM230100 07005KT P6SM SCT035 BKN150
     FM230900 07009KT 5SM TSRA OVC035CB=

USA.gov is the U.S. government's official web portal to all federal, state and local government web resources and services.